createdAt,value
2018-11-25T00:00:52.854Z,25.93
2018-11-25T00:03:19.969Z,24.90
2018-11-25T00:05:47.074Z,23.83
2018-11-25T00:08:14.270Z,24.00
2018-11-25T00:10:41.414Z,23.30
2018-11-25T00:13:08.557Z,24.50
2018-11-25T00:15:35.689Z,24.27
2018-11-25T00:18:02.858Z,24.40
2018-11-25T00:20:29.993Z,23.70
2018-11-25T00:22:57.104Z,23.57
2018-11-25T00:25:24.267Z,23.47
2018-11-25T00:27:51.371Z,23.00
2018-11-25T00:30:18.473Z,22.73
2018-11-25T00:32:45.601Z,22.63
2018-11-25T00:35:14.889Z,23.63
2018-11-25T00:37:47.952Z,23.70
2018-11-25T00:40:09.790Z,22.30
2018-11-25T00:42:36.976Z,22.37
2018-11-25T00:45:05.237Z,21.83
2018-11-25T00:47:32.369Z,22.40
2018-11-25T00:49:59.465Z,23.47
2018-11-25T00:52:26.561Z,24.07
2018-11-25T00:54:53.680Z,24.23
2018-11-25T00:57:20.833Z,21.83
2018-11-25T00:59:47.989Z,23.87
2018-11-25T01:02:15.089Z,21.57
2018-11-25T01:04:42.198Z,21.67
2018-11-25T01:07:09.334Z,20.97
2018-11-25T01:09:36.457Z,21.23
2018-11-25T01:12:03.637Z,21.77
2018-11-25T01:14:30.773Z,21.40
2018-11-25T01:16:57.906Z,21.03
2018-11-25T01:19:25.036Z,21.60
2018-11-25T01:21:52.195Z,21.53
2018-11-25T01:24:19.296Z,21.30
2018-11-25T01:26:46.434Z,21.57
2018-11-25T01:29:13.561Z,20.93
2018-11-25T01:31:40.706Z,21.63
2018-11-25T01:34:07.813Z,22.70
2018-11-25T01:36:34.981Z,22.07
2018-11-25T01:39:02.156Z,22.77
2018-11-25T01:41:29.313Z,22.80
2018-11-25T01:43:56.422Z,23.03
2018-11-25T01:46:23.868Z,23.00
2018-11-25T01:48:51.746Z,24.10
2018-11-25T01:51:18.863Z,23.80
2018-11-25T01:53:46.137Z,22.77
2018-11-25T01:56:13.317Z,22.07
2018-11-25T01:58:40.381Z,23.43
2018-11-25T02:01:07.654Z,22.03
2018-11-25T02:03:34.792Z,23.83
2018-11-25T02:06:01.906Z,23.83
2018-11-25T02:08:29.023Z,23.43
2018-11-25T02:10:56.157Z,22.17
2018-11-25T02:13:23.253Z,22.57
2018-11-25T02:15:50.402Z,22.87
2018-11-25T02:18:17.865Z,24.60
2018-11-25T02:20:45.015Z,24.00
2018-11-25T02:23:12.144Z,22.27
2018-11-25T02:25:39.308Z,21.97
2018-11-25T02:28:06.958Z,23.67
2018-11-25T02:30:34.049Z,23.70
2018-11-25T02:33:01.375Z,22.90
2018-11-25T02:35:28.939Z,22.47
2018-11-25T02:37:56.172Z,22.00
2018-11-25T02:40:23.916Z,21.87
2018-11-25T02:42:51.454Z,21.23
2018-11-25T02:45:18.958Z,22.47
2018-11-25T02:47:46.197Z,22.03
2018-11-25T02:50:30.665Z,23.00
2018-11-25T02:53:01.460Z,22.20
2018-11-25T02:55:28.582Z,19.40
2018-11-25T02:57:55.692Z,18.90
2018-11-25T03:00:22.825Z,19.20
2018-11-25T03:02:49.969Z,20.33
2018-11-25T03:05:17.131Z,21.23
2018-11-25T03:07:44.280Z,20.87
2018-11-25T03:10:11.465Z,21.70
2018-11-25T03:12:38.644Z,22.67
2018-11-25T03:15:09.301Z,22.13
2018-11-25T03:17:36.434Z,21.93
2018-11-25T03:20:06.350Z,23.10
2018-11-25T03:22:33.458Z,21.03
2018-11-25T03:25:00.577Z,20.97
2018-11-25T03:27:27.720Z,20.90
2018-11-25T03:29:54.841Z,22.33
2018-11-25T03:32:21.958Z,21.40
2018-11-25T03:34:49.074Z,21.97
2018-11-25T03:37:16.213Z,21.03
2018-11-25T03:39:43.354Z,23.17
2018-11-25T03:42:10.484Z,21.93
2018-11-25T03:44:37.618Z,22.60
2018-11-25T03:47:04.853Z,21.97
2018-11-25T03:49:32.002Z,22.40
2018-11-25T03:51:59.094Z,22.70
2018-11-25T03:54:26.225Z,22.27
2018-11-25T03:56:53.381Z,23.70
2018-11-25T03:59:20.481Z,24.63
2018-11-25T04:01:47.617Z,25.63
2018-11-25T04:04:14.717Z,24.03
2018-11-25T04:06:41.824Z,26.83
2018-11-25T04:09:08.917Z,27.03
2018-11-25T04:11:36.253Z,26.90
2018-11-25T04:14:03.839Z,27.33
2018-11-25T04:16:30.993Z,26.50
2018-11-25T04:18:58.132Z,24.30
2018-11-25T04:21:25.235Z,24.47
2018-11-25T04:23:52.357Z,22.63
2018-11-25T04:26:19.475Z,24.43
2018-11-25T04:28:46.569Z,25.47
2018-11-25T04:31:13.690Z,24.03
2018-11-25T04:33:40.820Z,24.50
2018-11-25T04:36:07.953Z,22.17
2018-11-25T04:38:35.075Z,21.27
2018-11-25T04:41:02.226Z,22.60
2018-11-25T04:43:29.377Z,22.43
2018-11-25T04:45:56.471Z,20.93
2018-11-25T04:48:23.622Z,22.73
2018-11-25T04:50:50.758Z,22.83
2018-11-25T04:53:17.908Z,22.13
2018-11-25T04:55:45.018Z,21.77
2018-11-25T04:58:12.195Z,20.73
2018-11-25T05:00:39.331Z,20.83
2018-11-25T05:03:06.514Z,22.10
2018-11-25T05:05:33.618Z,22.33
2018-11-25T05:08:00.719Z,21.93
2018-11-25T05:10:27.861Z,23.03
2018-11-25T05:12:55.014Z,24.90
2018-11-25T05:15:22.170Z,21.23
2018-11-25T05:17:49.553Z,22.80
2018-11-25T05:20:17.370Z,23.70
2018-11-25T05:22:44.479Z,22.63
2018-11-25T05:25:12.709Z,22.00
2018-11-25T05:27:39.879Z,23.13
2018-11-25T05:30:09.165Z,23.47
2018-11-25T05:32:36.287Z,22.30
2018-11-25T05:35:04.362Z,23.53
2018-11-25T05:37:31.466Z,22.47
2018-11-25T05:39:58.573Z,24.27
2018-11-25T05:42:25.721Z,23.07
2018-11-25T05:44:52.842Z,24.13
2018-11-25T05:47:19.998Z,23.80
2018-11-25T05:49:47.118Z,21.20
2018-11-25T05:52:14.248Z,22.43
2018-11-25T05:54:41.418Z,21.80
2018-11-25T05:57:08.561Z,20.30
2018-11-25T05:59:35.659Z,21.00
2018-11-25T06:02:02.790Z,21.57
2018-11-25T06:04:29.925Z,22.63
2018-11-25T06:06:57.036Z,21.50
2018-11-25T06:09:24.183Z,23.07
2018-11-25T06:11:51.277Z,23.97
2018-11-25T06:14:18.417Z,23.07
2018-11-25T06:16:45.553Z,23.00
2018-11-25T06:19:12.694Z,23.17
2018-11-25T06:21:39.860Z,23.87
2018-11-25T06:24:06.988Z,26.80
2018-11-25T06:26:34.091Z,24.03
2018-11-25T06:29:01.190Z,24.13
2018-11-25T06:31:28.335Z,22.93
2018-11-25T06:33:55.430Z,21.83
2018-11-25T06:36:22.557Z,23.37
2018-11-25T06:38:49.649Z,22.77
2018-11-25T06:41:16.737Z,21.83
2018-11-25T06:43:43.882Z,20.47
2018-11-25T06:46:11.700Z,22.90
2018-11-25T06:48:38.789Z,20.83
2018-11-25T06:51:05.930Z,21.47
2018-11-25T06:53:33.037Z,21.47
2018-11-25T06:56:00.153Z,24.13
2018-11-25T06:58:27.259Z,24.50
2018-11-25T07:00:54.410Z,24.40
2018-11-25T07:03:21.510Z,24.77
2018-11-25T07:05:48.620Z,23.73
2018-11-25T07:08:15.713Z,24.30
2018-11-25T07:10:42.835Z,24.13
2018-11-25T07:13:09.963Z,23.37
2018-11-25T07:15:37.071Z,23.83
2018-11-25T07:18:04.229Z,24.47
2018-11-25T07:20:31.339Z,23.17
2018-11-25T07:22:58.459Z,22.10
2018-11-25T07:25:25.589Z,21.63
2018-11-25T07:27:52.942Z,17.37
2018-11-25T07:30:27.054Z,16.43
2018-11-25T07:32:54.225Z,16.37
2018-11-25T07:35:22.352Z,16.80
2018-11-25T07:37:49.470Z,17.43
2018-11-25T07:40:17.161Z,16.33
2018-11-25T07:42:44.854Z,16.10
2018-11-25T07:45:13.481Z,15.30
2018-11-25T07:47:41.732Z,14.37
2018-11-25T07:50:10.337Z,14.67
2018-11-25T07:52:37.499Z,14.50
2018-11-25T07:55:10.614Z,12.73
2018-11-25T07:57:38.487Z,13.90
2018-11-25T08:00:09.314Z,12.83
2018-11-25T08:02:41.444Z,13.70
2018-11-25T08:05:04.329Z,13.33
2018-11-25T08:07:32.661Z,12.50
2018-11-25T08:09:58.597Z,12.37
2018-11-25T08:12:25.750Z,13.17
2018-11-25T08:14:52.850Z,12.90
2018-11-25T08:17:19.985Z,12.90
2018-11-25T08:19:47.091Z,13.67
2018-11-25T08:22:14.217Z,12.50
2018-11-25T08:24:41.318Z,12.17
2018-11-25T08:27:08.424Z,13.07
2018-11-25T08:29:35.518Z,12.37
2018-11-25T08:32:02.624Z,12.93
2018-11-25T08:34:29.726Z,11.87
2018-11-25T08:36:56.819Z,13.47
2018-11-25T08:39:23.927Z,13.07
2018-11-25T08:41:51.027Z,15.57
2018-11-25T08:44:18.166Z,14.17
2018-11-25T08:46:45.258Z,13.83
2018-11-25T08:49:12.410Z,13.80
2018-11-25T08:51:39.526Z,13.83
2018-11-25T08:54:06.660Z,13.90
2018-11-25T08:56:33.757Z,12.80
2018-11-25T08:59:00.926Z,13.07
2018-11-25T09:01:28.026Z,14.23
2018-11-25T09:03:55.126Z,15.27
2018-11-25T09:06:22.226Z,14.60
2018-11-25T09:08:49.335Z,13.77
2018-11-25T09:11:16.509Z,15.13
2018-11-25T09:13:43.640Z,15.43
2018-11-25T09:16:10.824Z,14.80
2018-11-25T09:18:37.954Z,15.70
2018-11-25T09:21:05.102Z,16.20
2018-11-25T09:23:32.209Z,18.20
2018-11-25T09:25:59.321Z,15.10
2018-11-25T09:28:26.660Z,16.97
2018-11-25T09:30:53.707Z,16.10
2018-11-25T09:33:20.844Z,18.20
2018-11-25T09:35:47.987Z,19.47
2018-11-25T09:38:15.131Z,19.73
2018-11-25T09:40:42.389Z,19.07
2018-11-25T09:43:09.545Z,18.33
2018-11-25T09:45:36.662Z,18.43
2018-11-25T09:48:03.838Z,17.57
2018-11-25T09:50:31.084Z,17.37
2018-11-25T09:52:58.194Z,19.27
2018-11-25T09:55:25.338Z,19.03
2018-11-25T09:57:55.225Z,16.33
2018-11-25T10:00:23.418Z,17.33
2018-11-25T10:02:50.549Z,18.67
2018-11-25T10:05:17.753Z,18.80
2018-11-25T10:07:44.851Z,17.80
2018-11-25T10:10:12.576Z,15.93
2018-11-25T10:12:39.712Z,18.10
2018-11-25T10:15:09.013Z,16.73
2018-11-25T10:17:36.192Z,16.77
2018-11-25T10:20:04.291Z,18.13
2018-11-25T10:22:31.444Z,16.33
2018-11-25T10:24:58.576Z,16.40
2018-11-25T10:27:25.845Z,15.37
2018-11-25T10:29:52.974Z,16.90
2018-11-25T10:32:20.109Z,16.70
2018-11-25T10:34:47.336Z,17.10
2018-11-25T10:37:14.485Z,16.53
2018-11-25T10:39:42.493Z,18.87
2018-11-25T10:42:09.646Z,18.47
2018-11-25T10:44:36.797Z,16.83
2018-11-25T10:47:04.093Z,16.17
2018-11-25T10:49:31.409Z,14.80
2018-11-25T10:51:58.657Z,16.23
2018-11-25T10:54:25.794Z,16.23
2018-11-25T10:56:52.902Z,15.43
2018-11-25T10:59:20.054Z,17.60
2018-11-25T11:01:54.150Z,17.00
2018-11-25T11:04:27.171Z,16.93
2018-11-25T11:06:59.961Z,18.23
2018-11-25T11:09:27.106Z,16.87
2018-11-25T11:11:54.273Z,18.00
2018-11-25T11:14:21.410Z,17.47
2018-11-25T11:16:53.785Z,17.73
2018-11-25T11:19:15.717Z,15.80
2018-11-25T11:21:42.853Z,14.67
2018-11-25T11:24:10.134Z,12.87
2018-11-25T11:26:37.342Z,13.43
2018-11-25T11:29:04.761Z,12.93
2018-11-25T11:31:31.922Z,13.30
2018-11-25T11:33:59.025Z,12.57
2018-11-25T11:36:26.261Z,12.23
2018-11-25T11:38:53.409Z,11.07
2018-11-25T11:41:20.515Z,11.67
2018-11-25T11:43:47.666Z,11.63
2018-11-25T11:46:14.809Z,11.60
2018-11-25T11:48:41.940Z,12.23
2018-11-25T11:51:09.261Z,12.53
2018-11-25T11:53:36.411Z,11.80
2018-11-25T11:56:03.607Z,11.00
2018-11-25T11:58:30.837Z,10.60
2018-11-25T12:00:57.952Z,10.63
2018-11-25T12:03:26.453Z,10.40
2018-11-25T12:05:52.245Z,12.07
2018-11-25T12:08:19.385Z,12.03
2018-11-25T12:10:46.534Z,12.93
2018-11-25T12:13:13.678Z,12.23
2018-11-25T12:15:41.922Z,12.90
2018-11-25T12:18:09.095Z,13.17
2018-11-25T12:20:36.293Z,13.33
2018-11-25T12:23:03.685Z,14.57
2018-11-25T12:25:30.953Z,14.27
2018-11-25T12:27:58.336Z,13.77
2018-11-25T12:30:25.499Z,13.90
2018-11-25T12:32:52.656Z,11.83
2018-11-25T12:35:19.799Z,11.67
2018-11-25T12:37:46.961Z,11.03
2018-11-25T12:40:18.545Z,10.93
2018-11-25T12:42:48.358Z,11.40
2018-11-25T12:45:15.929Z,10.87
2018-11-25T12:47:43.061Z,11.07
2018-11-25T12:50:10.826Z,11.67
2018-11-25T12:52:37.974Z,11.57
2018-11-25T12:55:07.590Z,10.87
2018-11-25T12:57:34.757Z,10.87
2018-11-25T13:00:01.987Z,10.60
2018-11-25T13:02:29.138Z,10.10
2018-11-25T13:04:56.307Z,9.73
2018-11-25T13:07:23.460Z,10.67
2018-11-25T13:09:50.613Z,9.40
2018-11-25T13:12:17.753Z,9.83
2018-11-25T13:14:44.864Z,9.83
2018-11-25T13:17:12.002Z,8.97
2018-11-25T13:19:39.114Z,9.87
2018-11-25T13:22:06.245Z,9.40
2018-11-25T13:24:33.353Z,9.97
2018-11-25T13:27:00.455Z,9.60
2018-11-25T13:29:27.625Z,9.73
2018-11-25T13:31:54.758Z,8.97
2018-11-25T13:34:21.871Z,9.37
2018-11-25T13:36:48.971Z,8.77
2018-11-25T13:39:16.088Z,8.50
2018-11-25T13:41:43.301Z,9.23
2018-11-25T13:44:10.454Z,9.63
2018-11-25T13:46:37.608Z,10.30
2018-11-25T13:49:04.762Z,8.43
2018-11-25T13:51:31.914Z,8.87
2018-11-25T13:53:59.068Z,9.93
2018-11-25T13:56:26.669Z,9.00
2018-11-25T13:58:53.881Z,9.30
2018-11-25T14:01:20.978Z,9.63
2018-11-25T14:03:48.084Z,8.37
2018-11-25T14:06:15.253Z,9.33
2018-11-25T14:08:43.991Z,9.63
2018-11-25T14:11:12.540Z,10.10
2018-11-25T14:13:39.698Z,8.83
2018-11-25T14:16:08.379Z,8.03
2018-11-25T14:18:35.517Z,8.43
2018-11-25T14:21:02.690Z,8.43
2018-11-25T14:23:29.829Z,8.90
2018-11-25T14:25:58.082Z,8.47
2018-11-25T14:28:25.225Z,8.03
2018-11-25T14:30:52.321Z,8.53
2018-11-25T14:33:19.419Z,9.33
2018-11-25T14:35:46.527Z,9.50
2018-11-25T14:38:13.638Z,9.53
2018-11-25T14:40:40.790Z,8.57
2018-11-25T14:43:07.925Z,7.63
2018-11-25T14:45:35.053Z,8.93
2018-11-25T14:48:02.197Z,8.87
2018-11-25T14:50:29.350Z,8.83
2018-11-25T14:52:56.565Z,8.60
2018-11-25T14:55:23.713Z,8.90
2018-11-25T14:57:50.858Z,9.27
2018-11-25T15:00:18.605Z,8.93
2018-11-25T15:02:48.088Z,8.73
2018-11-25T15:05:17.312Z,10.00
2018-11-25T15:07:44.473Z,9.13
2018-11-25T15:10:11.732Z,11.27
2018-11-25T15:12:38.893Z,16.40
2018-11-25T15:15:08.238Z,24.10
2018-11-25T15:17:35.356Z,29.07
2018-11-25T15:20:02.753Z,19.10
2018-11-25T15:22:29.921Z,22.80
2018-11-25T15:24:57.090Z,11.87
2018-11-25T15:27:24.210Z,12.23
2018-11-25T15:29:51.363Z,10.67
2018-11-25T15:37:23.086Z,11.87
2018-11-25T15:39:50.229Z,12.97
2018-11-25T15:42:17.401Z,15.57
2018-11-25T15:44:44.552Z,114.43
2018-11-25T15:47:11.702Z,14.73
2018-11-25T15:49:38.857Z,19.97
2018-11-25T15:52:06.065Z,21.13
2018-11-25T15:54:33.245Z,26.00
2018-11-25T15:57:00.371Z,38.60
2018-11-25T15:59:27.550Z,34.93
2018-11-25T16:01:54.674Z,39.00
2018-11-25T16:04:21.803Z,15.73
2018-11-25T16:06:48.911Z,11.67
2018-11-25T16:09:16.044Z,9.30
2018-11-25T16:11:43.206Z,9.33
2018-11-25T16:14:10.345Z,10.13
2018-11-25T16:16:37.495Z,10.40
2018-11-25T16:19:04.661Z,9.63
2018-11-25T16:21:31.858Z,9.83
2018-11-25T16:23:58.973Z,9.43
2018-11-25T16:26:27.181Z,10.00
2018-11-25T16:28:56.694Z,9.43
2018-11-25T16:31:23.833Z,9.20
2018-11-25T16:33:50.939Z,9.03
2018-11-25T16:36:18.037Z,10.03
2018-11-25T16:38:45.152Z,9.93
2018-11-25T16:41:12.723Z,10.03
2018-11-25T16:43:39.937Z,10.07
2018-11-25T16:46:07.117Z,10.77
2018-11-25T16:48:34.265Z,9.77
2018-11-25T16:51:01.448Z,9.73
2018-11-25T16:53:28.603Z,9.97
2018-11-25T16:55:55.744Z,10.20
2018-11-25T16:58:22.870Z,9.77
2018-11-25T17:00:50.022Z,9.63
2018-11-25T17:03:17.168Z,9.70
2018-11-25T17:05:46.037Z,10.87
2018-11-25T17:08:15.535Z,10.80
2018-11-25T17:10:42.714Z,10.37
2018-11-25T17:13:09.853Z,10.10
2018-11-25T17:15:37.029Z,9.33
2018-11-25T17:18:04.206Z,9.70
2018-11-25T17:20:31.354Z,10.67
2018-11-25T17:22:58.530Z,10.80
2018-11-25T17:25:25.650Z,10.63
2018-11-25T17:27:52.806Z,9.90
2018-11-25T17:30:20.069Z,10.97
2018-11-25T17:32:47.407Z,10.30
2018-11-25T17:35:16.155Z,10.43
2018-11-25T17:37:43.266Z,9.43
2018-11-25T17:40:10.468Z,9.77
2018-11-25T17:42:37.796Z,8.83
2018-11-25T17:45:06.902Z,10.33
2018-11-25T17:47:34.075Z,8.80
2018-11-25T17:50:01.293Z,9.17
2018-11-25T17:52:28.442Z,9.17
2018-11-25T17:54:55.572Z,10.67
2018-11-25T17:57:22.748Z,8.80
2018-11-25T17:59:49.906Z,12.50
2018-11-25T18:02:17.041Z,12.20
2018-11-25T18:04:44.164Z,8.67
2018-11-25T18:07:11.297Z,10.50
2018-11-25T18:09:38.416Z,11.13
2018-11-25T18:12:05.570Z,10.33
2018-11-25T18:14:32.718Z,12.60
2018-11-25T18:16:59.861Z,10.00
2018-11-25T18:19:27.001Z,10.03
2018-11-25T18:21:56.043Z,18.53
2018-11-25T18:24:23.302Z,13.30
2018-11-25T18:26:50.436Z,11.27
2018-11-25T18:29:17.582Z,10.73
2018-11-25T18:31:44.732Z,12.80
2018-11-25T18:34:11.858Z,15.27
2018-11-25T18:36:38.966Z,19.03
2018-11-25T18:39:07.466Z,11.43
2018-11-25T18:41:34.629Z,10.87
2018-11-25T18:44:01.788Z,10.63
2018-11-25T18:46:29.101Z,10.27
2018-11-25T18:48:56.249Z,10.53
2018-11-25T18:51:23.362Z,11.17
2018-11-25T18:53:50.558Z,10.47
2018-11-25T18:56:17.682Z,10.03
2018-11-25T18:58:44.842Z,10.07
2018-11-25T19:01:16.595Z,10.80
2018-11-25T19:03:43.760Z,9.90
2018-11-25T19:06:10.926Z,10.57
2018-11-25T19:08:38.085Z,10.83
2018-11-25T19:11:05.266Z,10.70
2018-11-25T19:13:32.409Z,10.50
2018-11-25T19:15:59.558Z,13.23
2018-11-25T19:18:26.671Z,11.33
2018-11-25T19:20:53.833Z,10.70
2018-11-25T19:23:21.016Z,10.40
2018-11-25T19:25:48.157Z,10.17
2018-11-25T19:28:15.288Z,11.17
2018-11-25T19:30:42.440Z,10.17
2018-11-25T19:33:09.590Z,10.47
2018-11-25T19:35:38.041Z,9.60
2018-11-25T19:38:03.938Z,10.27
2018-11-25T19:40:31.122Z,10.50
2018-11-25T19:42:58.286Z,8.80
2018-11-25T19:45:25.882Z,8.53
2018-11-25T19:47:53.431Z,8.00
2018-11-25T19:50:25.772Z,7.80
2018-11-25T19:52:52.921Z,7.17
2018-11-25T19:55:21.565Z,7.30
2018-11-25T19:57:47.361Z,6.90
2018-11-25T20:00:15.210Z,7.40
2018-11-25T20:02:42.341Z,6.97
2018-11-25T20:05:10.870Z,7.07
2018-11-25T20:07:38.080Z,7.53
2018-11-25T20:10:09.195Z,7.17
2018-11-25T20:12:41.014Z,7.13
2018-11-25T20:15:08.814Z,7.30
2018-11-25T20:17:35.986Z,7.47
2018-11-25T20:20:04.308Z,7.67
2018-11-25T20:22:31.478Z,7.67
2018-11-25T20:24:58.629Z,7.70
2018-11-25T20:27:31.601Z,7.27
2018-11-25T20:29:58.738Z,7.53
2018-11-25T20:32:31.643Z,7.37
2018-11-25T20:34:58.795Z,8.57
2018-11-25T20:37:26.976Z,7.97
2018-11-25T20:39:53.083Z,8.20
2018-11-25T20:42:20.238Z,7.73
2018-11-25T20:44:47.386Z,7.07
2018-11-25T20:47:14.566Z,7.57
2018-11-25T20:49:41.769Z,7.80
2018-11-25T20:52:14.527Z,7.40
2018-11-25T20:54:41.688Z,7.57
2018-11-25T20:57:08.831Z,7.83
2018-11-25T20:59:35.971Z,7.00
2018-11-25T21:02:03.174Z,8.00
2018-11-25T21:04:30.356Z,7.47
2018-11-25T21:06:57.549Z,7.60
2018-11-25T21:09:24.681Z,6.77
2018-11-25T21:11:51.843Z,6.90
2018-11-25T21:14:18.965Z,6.83
2018-11-25T21:16:47.339Z,5.93
2018-11-25T21:19:14.494Z,6.63
2018-11-25T21:21:41.897Z,5.97
2018-11-25T21:24:09.234Z,6.47
2018-11-25T21:26:36.402Z,6.33
2018-11-25T21:29:04.096Z,6.13
2018-11-25T21:31:31.248Z,5.67
2018-11-25T21:33:59.172Z,5.87
2018-11-25T21:36:26.311Z,6.13
2018-11-25T21:38:54.862Z,5.27
2018-11-25T21:41:22.221Z,5.80
2018-11-25T21:43:49.982Z,6.13
2018-11-25T21:46:17.114Z,6.43
2018-11-25T21:48:44.425Z,6.03
2018-11-25T21:51:11.617Z,5.97
2018-11-25T21:53:38.765Z,6.30
2018-11-25T21:56:05.963Z,6.37
2018-11-25T21:58:33.409Z,6.80
2018-11-25T22:01:00.545Z,6.17
2018-11-25T22:03:27.705Z,6.50
2018-11-25T22:05:54.834Z,6.13
2018-11-25T22:08:22.021Z,6.67
2018-11-25T22:10:49.122Z,6.63
2018-11-25T22:13:16.478Z,6.60
2018-11-25T22:15:43.632Z,6.10
2018-11-25T22:18:10.774Z,6.23
2018-11-25T22:20:37.938Z,7.43
2018-11-25T22:23:05.661Z,6.77
2018-11-25T22:25:33.009Z,7.57
2018-11-25T22:28:00.359Z,7.17
2018-11-25T22:30:27.530Z,6.97
2018-11-25T22:32:54.663Z,7.50
2018-11-25T22:35:22.395Z,7.33
2018-11-25T22:37:49.587Z,8.50
2018-11-25T22:40:17.475Z,7.73
2018-11-25T22:42:46.285Z,7.90
2018-11-25T22:45:16.076Z,8.13
2018-11-25T22:47:43.223Z,8.33
2018-11-25T22:50:10.880Z,8.83
2018-11-25T22:52:38.043Z,9.20
2018-11-25T22:55:08.161Z,9.00
2018-11-25T22:57:35.297Z,8.80
2018-11-25T23:00:02.541Z,8.87
2018-11-25T23:02:29.818Z,9.20
2018-11-25T23:05:02.810Z,9.33
2018-11-25T23:07:29.979Z,8.53
2018-11-25T23:09:57.138Z,9.90
2018-11-25T23:12:24.292Z,9.30
2018-11-25T23:14:51.792Z,9.10
2018-11-25T23:17:18.981Z,9.13
2018-11-25T23:19:46.138Z,9.53
2018-11-25T23:22:13.318Z,9.40
2018-11-25T23:24:40.443Z,9.07
2018-11-25T23:27:07.577Z,9.97
2018-11-25T23:29:34.765Z,9.10
2018-11-25T23:32:01.862Z,10.17
2018-11-25T23:34:29.041Z,9.73
2018-11-25T23:36:56.187Z,9.37
2018-11-25T23:39:23.674Z,9.90
2018-11-25T23:41:50.829Z,9.87
2018-11-25T23:44:17.983Z,10.57
2018-11-25T23:46:45.158Z,9.40
2018-11-25T23:49:12.290Z,10.00
2018-11-25T23:51:40.058Z,9.87
2018-11-25T23:54:07.239Z,10.63
2018-11-25T23:56:34.369Z,11.27
2018-11-25T23:59:01.562Z,10.73
